sensor_id;sensor_type;location;lat;lon;timestamp;P1;durP1;ratioP1;P2;durP2;ratioP2
7446;SDS011;3765;47.962;7.952;2022-12-16T00:01:12;137.57;;;52.20;;
7446;SDS011;3765;47.962;7.952;2022-12-16T00:03:45;135.47;;;59.37;;
7446;SDS011;3765;47.962;7.952;2022-12-16T00:06:14;98.70;;;52.63;;
7446;SDS011;3765;47.962;7.952;2022-12-16T00:08:42;131.37;;;52.37;;
7446;SDS011;3765;47.962;7.952;2022-12-16T00:11:11;285.70;;;53.53;;
7446;SDS011;3765;47.962;7.952;2022-12-16T00:13:41;94.50;;;51.63;;
7446;SDS011;3765;47.962;7.952;2022-12-16T00:16:10;93.33;;;52.70;;
7446;SDS011;3765;47.962;7.952;2022-12-16T00:18:40;100.83;;;49.50;;
7446;SDS011;3765;47.962;7.952;2022-12-16T00:21:08;93.83;;;50.27;;
7446;SDS011;3765;47.962;7.952;2022-12-16T00:23:37;131.83;;;48.63;;
7446;SDS011;3765;47.962;7.952;2022-12-16T00:26:07;86.83;;;49.10;;
7446;SDS011;3765;47.962;7.952;2022-12-16T00:28:36;89.40;;;49.03;;
7446;SDS011;3765;47.962;7.952;2022-12-16T00:31:06;93.13;;;48.20;;
7446;SDS011;3765;47.962;7.952;2022-12-16T00:33:34;103.17;;;58.83;;
7446;SDS011;3765;47.962;7.952;2022-12-16T00:36:02;88.53;;;47.67;;
7446;SDS011;3765;47.962;7.952;2022-12-16T00:38:31;87.57;;;47.17;;
7446;SDS011;3765;47.962;7.952;2022-12-16T00:41:00;81.47;;;46.20;;
7446;SDS011;3765;47.962;7.952;2022-12-16T00:43:28;69.23;;;43.23;;
7446;SDS011;3765;47.962;7.952;2022-12-16T00:45:57;79.27;;;46.37;;
7446;SDS011;3765;47.962;7.952;2022-12-16T00:48:27;81.43;;;47.47;;
7446;SDS011;3765;47.962;7.952;2022-12-16T00:50:55;76.87;;;45.13;;
7446;SDS011;3765;47.962;7.952;2022-12-16T00:53:23;86.07;;;45.07;;
7446;SDS011;3765;47.962;7.952;2022-12-16T00:55:54;73.63;;;44.23;;
7446;SDS011;3765;47.962;7.952;2022-12-16T00:58:28;76.30;;;45.67;;
7446;SDS011;3765;47.962;7.952;2022-12-16T01:00:56;96.40;;;48.33;;
7446;SDS011;3765;47.962;7.952;2022-12-16T01:03:24;77.93;;;45.20;;
7446;SDS011;3765;47.962;7.952;2022-12-16T01:05:54;77.67;;;45.10;;
7446;SDS011;3765;47.962;7.952;2022-12-16T01:08:23;78.93;;;44.70;;
7446;SDS011;3765;47.962;7.952;2022-12-16T01:10:51;78.20;;;43.90;;
7446;SDS011;3765;47.962;7.952;2022-12-16T01:13:21;77.30;;;47.47;;
7446;SDS011;3765;47.962;7.952;2022-12-16T01:15:50;78.00;;;47.43;;
7446;SDS011;3765;47.962;7.952;2022-12-16T01:18:19;84.80;;;45.50;;
7446;SDS011;3765;47.962;7.952;2022-12-16T01:20:49;84.73;;;45.53;;
7446;SDS011;3765;47.962;7.952;2022-12-16T01:23:20;76.70;;;46.17;;
7446;SDS011;3765;47.962;7.952;2022-12-16T01:25:50;74.17;;;46.10;;
7446;SDS011;3765;47.962;7.952;2022-12-16T01:28:21;85.00;;;46.50;;
7446;SDS011;3765;47.962;7.952;2022-12-16T01:30:53;75.40;;;44.40;;
7446;SDS011;3765;47.962;7.952;2022-12-16T01:33:22;70.80;;;43.77;;
7446;SDS011;3765;47.962;7.952;2022-12-16T01:35:58;77.83;;;45.37;;
7446;SDS011;3765;47.962;7.952;2022-12-16T01:38:27;83.50;;;45.20;;
7446;SDS011;3765;47.962;7.952;2022-12-16T01:40:55;69.30;;;42.97;;
7446;SDS011;3765;47.962;7.952;2022-12-16T01:43:25;78.47;;;44.10;;
7446;SDS011;3765;47.962;7.952;2022-12-16T01:45:55;72.00;;;45.53;;
7446;SDS011;3765;47.962;7.952;2022-12-16T01:48:30;75.83;;;46.80;;
7446;SDS011;3765;47.962;7.952;2022-12-16T01:51:08;83.67;;;48.63;;
7446;SDS011;3765;47.962;7.952;2022-12-16T01:53:42;80.30;;;48.07;;
7446;SDS011;3765;47.962;7.952;2022-12-16T01:56:13;81.00;;;46.73;;
7446;SDS011;3765;47.962;7.952;2022-12-16T01:58:44;75.80;;;45.53;;
7446;SDS011;3765;47.962;7.952;2022-12-16T02:01:13;75.50;;;46.03;;
7446;SDS011;3765;47.962;7.952;2022-12-16T02:03:42;71.57;;;43.67;;
7446;SDS011;3765;47.962;7.952;2022-12-16T02:06:12;74.20;;;44.83;;
7446;SDS011;3765;47.962;7.952;2022-12-16T02:08:40;71.27;;;43.93;;
7446;SDS011;3765;47.962;7.952;2022-12-16T02:11:21;74.77;;;44.57;;
7446;SDS011;3765;47.962;7.952;2022-12-16T02:14:05;70.27;;;43.63;;
7446;SDS011;3765;47.962;7.952;2022-12-16T02:16:44;70.87;;;43.67;;
7446;SDS011;3765;47.962;7.952;2022-12-16T02:22:29;78.03;;;44.67;;
7446;SDS011;3765;47.962;7.952;2022-12-16T02:28:07;85.93;;;47.03;;
7446;SDS011;3765;47.962;7.952;2022-12-16T02:30:51;79.50;;;44.63;;
7446;SDS011;3765;47.962;7.952;2022-12-16T02:33:41;90.13;;;46.40;;
7446;SDS011;3765;47.962;7.952;2022-12-16T02:36:21;83.30;;;46.43;;
7446;SDS011;3765;47.962;7.952;2022-12-16T02:39:00;77.20;;;46.50;;
7446;SDS011;3765;47.962;7.952;2022-12-16T02:41:34;84.70;;;49.83;;
7446;SDS011;3765;47.962;7.952;2022-12-16T02:44:09;77.07;;;46.37;;
7446;SDS011;3765;47.962;7.952;2022-12-16T02:46:41;75.83;;;45.77;;
7446;SDS011;3765;47.962;7.952;2022-12-16T02:52:16;73.67;;;45.20;;
7446;SDS011;3765;47.962;7.952;2022-12-16T02:54:48;77.10;;;45.50;;
7446;SDS011;3765;47.962;7.952;2022-12-16T03:00:39;75.13;;;44.20;;
7446;SDS011;3765;47.962;7.952;2022-12-16T03:03:16;70.57;;;42.77;;
7446;SDS011;3765;47.962;7.952;2022-12-16T03:05:49;66.27;;;41.60;;
7446;SDS011;3765;47.962;7.952;2022-12-16T03:08:21;69.60;;;42.23;;
7446;SDS011;3765;47.962;7.952;2022-12-16T03:10:54;74.80;;;43.97;;
7446;SDS011;3765;47.962;7.952;2022-12-16T03:13:23;65.10;;;40.70;;
7446;SDS011;3765;47.962;7.952;2022-12-16T03:15:55;60.80;;;38.10;;
7446;SDS011;3765;47.962;7.952;2022-12-16T03:18:29;64.23;;;41.00;;
7446;SDS011;3765;47.962;7.952;2022-12-16T03:20:58;64.53;;;39.20;;
7446;SDS011;3765;47.962;7.952;2022-12-16T03:23:30;60.30;;;38.97;;
7446;SDS011;3765;47.962;7.952;2022-12-16T03:26:04;64.43;;;39.83;;
7446;SDS011;3765;47.962;7.952;2022-12-16T03:28:38;64.23;;;40.10;;
7446;SDS011;3765;47.962;7.952;2022-12-16T03:31:14;71.77;;;41.27;;
7446;SDS011;3765;47.962;7.952;2022-12-16T03:33:51;66.73;;;40.43;;
7446;SDS011;3765;47.962;7.952;2022-12-16T03:36:26;66.13;;;40.03;;
7446;SDS011;3765;47.962;7.952;2022-12-16T03:38:59;67.13;;;40.10;;
7446;SDS011;3765;47.962;7.952;2022-12-16T03:41:29;60.10;;;38.80;;
7446;SDS011;3765;47.962;7.952;2022-12-16T03:43:59;63.23;;;39.30;;
7446;SDS011;3765;47.962;7.952;2022-12-16T03:46:27;57.30;;;38.43;;
7446;SDS011;3765;47.962;7.952;2022-12-16T03:48:57;63.80;;;41.43;;
7446;SDS011;3765;47.962;7.952;2022-12-16T03:51:25;61.87;;;39.43;;
7446;SDS011;3765;47.962;7.952;2022-12-16T03:53:53;67.90;;;41.40;;
7446;SDS011;3765;47.962;7.952;2022-12-16T03:56:22;62.17;;;40.50;;
7446;SDS011;3765;47.962;7.952;2022-12-16T03:58:50;58.43;;;39.00;;
7446;SDS011;3765;47.962;7.952;2022-12-16T04:01:18;63.07;;;39.83;;
7446;SDS011;3765;47.962;7.952;2022-12-16T04:03:46;59.53;;;40.00;;
7446;SDS011;3765;47.962;7.952;2022-12-16T04:06:16;59.83;;;40.07;;
7446;SDS011;3765;47.962;7.952;2022-12-16T04:08:45;61.40;;;40.33;;
7446;SDS011;3765;47.962;7.952;2022-12-16T04:11:14;62.37;;;40.90;;
7446;SDS011;3765;47.962;7.952;2022-12-16T04:14:00;63.80;;;40.30;;
7446;SDS011;3765;47.962;7.952;2022-12-16T04:16:45;66.63;;;41.67;;
7446;SDS011;3765;47.962;7.952;2022-12-16T04:19:33;65.20;;;42.00;;
7446;SDS011;3765;47.962;7.952;2022-12-16T04:22:23;71.10;;;42.77;;
7446;SDS011;3765;47.962;7.952;2022-12-16T04:25:12;71.93;;;42.13;;
7446;SDS011;3765;47.962;7.952;2022-12-16T04:27:42;68.30;;;41.50;;
7446;SDS011;3765;47.962;7.952;2022-12-16T04:30:12;65.83;;;41.97;;
7446;SDS011;3765;47.962;7.952;2022-12-16T04:32:48;66.87;;;43.30;;
7446;SDS011;3765;47.962;7.952;2022-12-16T04:35:36;71.40;;;44.63;;
7446;SDS011;3765;47.962;7.952;2022-12-16T04:38:23;64.93;;;43.23;;
7446;SDS011;3765;47.962;7.952;2022-12-16T04:41:09;64.73;;;41.73;;
7446;SDS011;3765;47.962;7.952;2022-12-16T04:43:55;69.13;;;43.33;;
7446;SDS011;3765;47.962;7.952;2022-12-16T04:46:41;67.77;;;43.07;;
7446;SDS011;3765;47.962;7.952;2022-12-16T04:49:38;65.80;;;43.40;;
7446;SDS011;3765;47.962;7.952;2022-12-16T04:52:23;74.10;;;44.50;;
7446;SDS011;3765;47.962;7.952;2022-12-16T04:55:11;68.23;;;43.83;;
7446;SDS011;3765;47.962;7.952;2022-12-16T04:57:56;67.83;;;41.13;;
7446;SDS011;3765;47.962;7.952;2022-12-16T05:00:43;64.67;;;41.87;;
7446;SDS011;3765;47.962;7.952;2022-12-16T05:03:29;68.80;;;42.90;;
7446;SDS011;3765;47.962;7.952;2022-12-16T05:06:15;68.60;;;42.33;;
7446;SDS011;3765;47.962;7.952;2022-12-16T05:09:02;65.27;;;41.93;;
7446;SDS011;3765;47.962;7.952;2022-12-16T05:11:50;63.10;;;41.37;;
7446;SDS011;3765;47.962;7.952;2022-12-16T05:14:36;69.43;;;43.60;;
7446;SDS011;3765;47.962;7.952;2022-12-16T05:17:21;63.67;;;42.60;;
7446;SDS011;3765;47.962;7.952;2022-12-16T05:20:06;67.40;;;42.30;;
7446;SDS011;3765;47.962;7.952;2022-12-16T05:22:54;62.27;;;39.10;;
7446;SDS011;3765;47.962;7.952;2022-12-16T05:25:40;65.63;;;39.77;;
7446;SDS011;3765;47.962;7.952;2022-12-16T05:28:27;60.63;;;38.63;;
7446;SDS011;3765;47.962;7.952;2022-12-16T05:31:13;62.70;;;40.40;;
7446;SDS011;3765;47.962;7.952;2022-12-16T05:33:59;61.53;;;38.13;;
7446;SDS011;3765;47.962;7.952;2022-12-16T05:36:44;62.20;;;39.27;;
7446;SDS011;3765;47.962;7.952;2022-12-16T05:39:35;60.37;;;38.93;;
7446;SDS011;3765;47.962;7.952;2022-12-16T05:42:21;67.30;;;40.63;;
7446;SDS011;3765;47.962;7.952;2022-12-16T05:45:08;73.83;;;41.17;;
7446;SDS011;3765;47.962;7.952;2022-12-16T05:47:50;60.20;;;39.23;;
7446;SDS011;3765;47.962;7.952;2022-12-16T05:50:36;63.27;;;40.07;;
7446;SDS011;3765;47.962;7.952;2022-12-16T05:53:21;59.40;;;38.30;;
7446;SDS011;3765;47.962;7.952;2022-12-16T05:56:07;57.63;;;38.00;;
7446;SDS011;3765;47.962;7.952;2022-12-16T05:58:52;62.23;;;37.33;;
7446;SDS011;3765;47.962;7.952;2022-12-16T06:01:39;63.83;;;39.63;;
7446;SDS011;3765;47.962;7.952;2022-12-16T06:04:25;65.77;;;39.30;;
7446;SDS011;3765;47.962;7.952;2022-12-16T06:07:10;62.47;;;40.10;;
7446;SDS011;3765;47.962;7.952;2022-12-16T06:09:56;58.53;;;38.27;;
7446;SDS011;3765;47.962;7.952;2022-12-16T06:12:44;60.10;;;38.80;;
7446;SDS011;3765;47.962;7.952;2022-12-16T06:15:30;60.73;;;38.17;;
7446;SDS011;3765;47.962;7.952;2022-12-16T06:18:17;66.53;;;41.17;;
7446;SDS011;3765;47.962;7.952;2022-12-16T06:21:03;69.03;;;42.47;;
7446;SDS011;3765;47.962;7.952;2022-12-16T06:23:48;69.83;;;42.03;;
7446;SDS011;3765;47.962;7.952;2022-12-16T06:26:34;63.23;;;40.97;;
7446;SDS011;3765;47.962;7.952;2022-12-16T06:29:20;65.57;;;39.63;;
7446;SDS011;3765;47.962;7.952;2022-12-16T06:32:05;82.17;;;40.93;;
7446;SDS011;3765;47.962;7.952;2022-12-16T06:35:03;66.80;;;42.57;;
7446;SDS011;3765;47.962;7.952;2022-12-16T06:37:50;62.40;;;40.40;;
7446;SDS011;3765;47.962;7.952;2022-12-16T06:40:35;61.73;;;39.70;;
7446;SDS011;3765;47.962;7.952;2022-12-16T06:43:20;61.33;;;41.07;;
7446;SDS011;3765;47.962;7.952;2022-12-16T06:46:06;66.80;;;40.97;;
7446;SDS011;3765;47.962;7.952;2022-12-16T06:48:52;60.70;;;40.07;;
7446;SDS011;3765;47.962;7.952;2022-12-16T06:51:38;63.63;;;41.90;;
7446;SDS011;3765;47.962;7.952;2022-12-16T06:54:24;62.90;;;41.20;;
7446;SDS011;3765;47.962;7.952;2022-12-16T06:57:09;68.73;;;39.60;;
7446;SDS011;3765;47.962;7.952;2022-12-16T06:59:55;64.93;;;42.10;;
7446;SDS011;3765;47.962;7.952;2022-12-16T07:02:40;62.17;;;40.00;;
7446;SDS011;3765;47.962;7.952;2022-12-16T07:05:26;57.30;;;37.00;;
7446;SDS011;3765;47.962;7.952;2022-12-16T07:08:13;56.33;;;37.67;;
7446;SDS011;3765;47.962;7.952;2022-12-16T07:10:58;58.73;;;38.87;;
7446;SDS011;3765;47.962;7.952;2022-12-16T07:13:44;68.13;;;42.50;;
7446;SDS011;3765;47.962;7.952;2022-12-16T07:16:29;61.47;;;40.60;;
7446;SDS011;3765;47.962;7.952;2022-12-16T07:19:12;61.73;;;38.37;;
7446;SDS011;3765;47.962;7.952;2022-12-16T07:21:57;60.83;;;37.53;;
7446;SDS011;3765;47.962;7.952;2022-12-16T07:24:44;60.70;;;38.53;;
7446;SDS011;3765;47.962;7.952;2022-12-16T07:27:30;55.23;;;36.83;;
7446;SDS011;3765;47.962;7.952;2022-12-16T07:30:16;56.43;;;35.97;;
7446;SDS011;3765;47.962;7.952;2022-12-16T07:33:02;59.50;;;36.90;;
7446;SDS011;3765;47.962;7.952;2022-12-16T07:35:47;59.70;;;35.30;;
7446;SDS011;3765;47.962;7.952;2022-12-16T07:38:30;56.10;;;35.73;;
7446;SDS011;3765;47.962;7.952;2022-12-16T07:41:17;63.13;;;37.70;;
7446;SDS011;3765;47.962;7.952;2022-12-16T07:44:03;61.00;;;37.10;;
7446;SDS011;3765;47.962;7.952;2022-12-16T07:46:49;55.53;;;37.20;;
7446;SDS011;3765;47.962;7.952;2022-12-16T07:49:35;56.27;;;36.37;;
7446;SDS011;3765;47.962;7.952;2022-12-16T07:52:21;57.10;;;36.57;;
7446;SDS011;3765;47.962;7.952;2022-12-16T07:55:07;55.97;;;35.17;;
7446;SDS011;3765;47.962;7.952;2022-12-16T07:57:56;59.60;;;37.87;;
7446;SDS011;3765;47.962;7.952;2022-12-16T08:00:41;65.20;;;36.30;;
7446;SDS011;3765;47.962;7.952;2022-12-16T08:03:34;60.30;;;37.13;;
7446;SDS011;3765;47.962;7.952;2022-12-16T08:06:22;76.50;;;39.90;;
7446;SDS011;3765;47.962;7.952;2022-12-16T08:09:23;59.23;;;35.53;;
7446;SDS011;3765;47.962;7.952;2022-12-16T08:12:10;68.23;;;39.20;;
7446;SDS011;3765;47.962;7.952;2022-12-16T08:14:59;59.20;;;38.63;;
7446;SDS011;3765;47.962;7.952;2022-12-16T08:17:49;53.87;;;34.73;;
7446;SDS011;3765;47.962;7.952;2022-12-16T08:20:37;59.67;;;36.10;;
7446;SDS011;3765;47.962;7.952;2022-12-16T08:23:23;61.80;;;36.70;;
7446;SDS011;3765;47.962;7.952;2022-12-16T08:26:09;52.77;;;35.90;;
7446;SDS011;3765;47.962;7.952;2022-12-16T08:28:56;53.10;;;34.77;;
7446;SDS011;3765;47.962;7.952;2022-12-16T08:32:04;59.80;;;35.17;;
7446;SDS011;3765;47.962;7.952;2022-12-16T08:34:53;56.77;;;36.90;;
7446;SDS011;3765;47.962;7.952;2022-12-16T08:37:40;72.77;;;39.53;;
7446;SDS011;3765;47.962;7.952;2022-12-16T08:40:27;71.23;;;37.50;;
7446;SDS011;3765;47.962;7.952;2022-12-16T08:43:14;57.17;;;36.27;;
7446;SDS011;3765;47.962;7.952;2022-12-16T08:46:02;54.87;;;35.77;;
7446;SDS011;3765;47.962;7.952;2022-12-16T08:48:52;60.10;;;37.13;;
7446;SDS011;3765;47.962;7.952;2022-12-16T08:51:38;63.13;;;38.10;;
7446;SDS011;3765;47.962;7.952;2022-12-16T08:54:24;56.70;;;37.27;;
7446;SDS011;3765;47.962;7.952;2022-12-16T08:57:10;60.70;;;37.93;;
7446;SDS011;3765;47.962;7.952;2022-12-16T08:59:58;62.10;;;39.07;;
7446;SDS011;3765;47.962;7.952;2022-12-16T09:02:43;73.70;;;39.23;;
7446;SDS011;3765;47.962;7.952;2022-12-16T09:05:31;59.97;;;38.30;;
7446;SDS011;3765;47.962;7.952;2022-12-16T09:08:18;59.10;;;36.47;;
7446;SDS011;3765;47.962;7.952;2022-12-16T09:11:04;51.97;;;34.40;;
7446;SDS011;3765;47.962;7.952;2022-12-16T09:13:52;59.27;;;38.17;;
7446;SDS011;3765;47.962;7.952;2022-12-16T09:16:39;61.90;;;37.17;;
7446;SDS011;3765;47.962;7.952;2022-12-16T09:19:27;60.27;;;37.17;;
7446;SDS011;3765;47.962;7.952;2022-12-16T09:22:13;65.03;;;38.77;;
7446;SDS011;3765;47.962;7.952;2022-12-16T09:25:00;59.80;;;37.50;;
7446;SDS011;3765;47.962;7.952;2022-12-16T09:27:47;61.40;;;39.43;;
7446;SDS011;3765;47.962;7.952;2022-12-16T09:30:34;68.17;;;41.27;;
7446;SDS011;3765;47.962;7.952;2022-12-16T09:33:22;62.33;;;39.60;;
7446;SDS011;3765;47.962;7.952;2022-12-16T09:36:08;71.23;;;40.87;;
7446;SDS011;3765;47.962;7.952;2022-12-16T09:38:57;58.83;;;38.50;;
7446;SDS011;3765;47.962;7.952;2022-12-16T09:41:44;68.50;;;40.27;;
7446;SDS011;3765;47.962;7.952;2022-12-16T09:44:43;68.93;;;41.07;;
7446;SDS011;3765;47.962;7.952;2022-12-16T09:47:37;71.40;;;41.20;;
7446;SDS011;3765;47.962;7.952;2022-12-16T09:50:29;66.70;;;41.50;;
7446;SDS011;3765;47.962;7.952;2022-12-16T09:53:19;68.77;;;41.80;;
7446;SDS011;3765;47.962;7.952;2022-12-16T09:56:12;69.27;;;43.83;;
7446;SDS011;3765;47.962;7.952;2022-12-16T09:59:02;66.63;;;42.90;;
7446;SDS011;3765;47.962;7.952;2022-12-16T10:01:54;69.10;;;41.00;;
7446;SDS011;3765;47.962;7.952;2022-12-16T10:04:41;72.73;;;43.87;;
7446;SDS011;3765;47.962;7.952;2022-12-16T10:07:29;68.67;;;41.47;;
7446;SDS011;3765;47.962;7.952;2022-12-16T10:10:21;59.53;;;38.67;;
7446;SDS011;3765;47.962;7.952;2022-12-16T10:13:13;63.43;;;39.57;;
7446;SDS011;3765;47.962;7.952;2022-12-16T10:16:06;63.30;;;39.90;;
7446;SDS011;3765;47.962;7.952;2022-12-16T10:19:00;62.53;;;40.53;;
7446;SDS011;3765;47.962;7.952;2022-12-16T10:21:52;68.20;;;41.50;;
7446;SDS011;3765;47.962;7.952;2022-12-16T10:24:47;65.07;;;38.33;;
7446;SDS011;3765;47.962;7.952;2022-12-16T10:27:41;65.17;;;39.47;;
7446;SDS011;3765;47.962;7.952;2022-12-16T10:30:31;64.57;;;38.27;;
7446;SDS011;3765;47.962;7.952;2022-12-16T10:33:23;62.07;;;37.73;;
7446;SDS011;3765;47.962;7.952;2022-12-16T10:36:12;62.50;;;39.37;;
7446;SDS011;3765;47.962;7.952;2022-12-16T10:39:00;61.80;;;39.80;;
7446;SDS011;3765;47.962;7.952;2022-12-16T10:41:50;70.50;;;43.30;;
7446;SDS011;3765;47.962;7.952;2022-12-16T10:44:39;74.07;;;45.37;;
7446;SDS011;3765;47.962;7.952;2022-12-16T10:47:30;67.40;;;41.30;;
7446;SDS011;3765;47.962;7.952;2022-12-16T10:50:21;62.10;;;38.00;;
7446;SDS011;3765;47.962;7.952;2022-12-16T10:53:08;61.13;;;38.60;;
7446;SDS011;3765;47.962;7.952;2022-12-16T10:55:59;71.43;;;40.40;;
7446;SDS011;3765;47.962;7.952;2022-12-16T10:58:58;70.87;;;40.47;;
7446;SDS011;3765;47.962;7.952;2022-12-16T11:01:54;68.63;;;41.10;;
7446;SDS011;3765;47.962;7.952;2022-12-16T11:04:43;66.13;;;39.00;;
7446;SDS011;3765;47.962;7.952;2022-12-16T11:07:31;63.00;;;38.70;;
7446;SDS011;3765;47.962;7.952;2022-12-16T11:10:29;69.30;;;39.63;;
7446;SDS011;3765;47.962;7.952;2022-12-16T11:13:20;64.07;;;38.93;;
7446;SDS011;3765;47.962;7.952;2022-12-16T11:16:11;81.20;;;52.13;;
7446;SDS011;3765;47.962;7.952;2022-12-16T11:19:00;72.10;;;43.40;;
7446;SDS011;3765;47.962;7.952;2022-12-16T11:21:47;66.97;;;41.03;;
7446;SDS011;3765;47.962;7.952;2022-12-16T11:24:34;69.60;;;41.43;;
7446;SDS011;3765;47.962;7.952;2022-12-16T11:27:23;67.53;;;41.80;;
7446;SDS011;3765;47.962;7.952;2022-12-16T11:30:20;79.47;;;47.13;;
7446;SDS011;3765;47.962;7.952;2022-12-16T11:33:13;74.83;;;44.63;;
7446;SDS011;3765;47.962;7.952;2022-12-16T11:36:09;68.30;;;44.40;;
7446;SDS011;3765;47.962;7.952;2022-12-16T11:38:59;72.17;;;44.50;;
7446;SDS011;3765;47.962;7.952;2022-12-16T11:41:46;64.77;;;41.27;;
7446;SDS011;3765;47.962;7.952;2022-12-16T11:44:35;67.53;;;41.10;;
7446;SDS011;3765;47.962;7.952;2022-12-16T11:47:26;63.77;;;40.07;;
7446;SDS011;3765;47.962;7.952;2022-12-16T11:50:20;55.50;;;36.30;;
7446;SDS011;3765;47.962;7.952;2022-12-16T11:53:12;59.40;;;38.33;;
7446;SDS011;3765;47.962;7.952;2022-12-16T11:56:15;63.37;;;39.73;;
7446;SDS011;3765;47.962;7.952;2022-12-16T11:59:05;66.33;;;40.03;;
7446;SDS011;3765;47.962;7.952;2022-12-16T12:02:10;70.87;;;41.57;;
7446;SDS011;3765;47.962;7.952;2022-12-16T12:05:00;61.50;;;39.43;;
7446;SDS011;3765;47.962;7.952;2022-12-16T12:07:47;59.33;;;37.87;;
7446;SDS011;3765;47.962;7.952;2022-12-16T12:10:48;61.43;;;39.03;;
7446;SDS011;3765;47.962;7.952;2022-12-16T12:14:01;63.43;;;40.13;;
7446;SDS011;3765;47.962;7.952;2022-12-16T12:16:58;62.03;;;39.27;;
7446;SDS011;3765;47.962;7.952;2022-12-16T12:19:57;68.23;;;40.80;;
7446;SDS011;3765;47.962;7.952;2022-12-16T12:22:59;63.87;;;38.03;;
7446;SDS011;3765;47.962;7.952;2022-12-16T12:25:52;57.23;;;35.50;;
7446;SDS011;3765;47.962;7.952;2022-12-16T12:28:49;60.10;;;36.97;;
7446;SDS011;3765;47.962;7.952;2022-12-16T12:31:46;62.80;;;39.03;;
7446;SDS011;3765;47.962;7.952;2022-12-16T12:34:48;59.87;;;37.67;;
7446;SDS011;3765;47.962;7.952;2022-12-16T12:37:45;54.70;;;35.63;;
7446;SDS011;3765;47.962;7.952;2022-12-16T12:40:39;58.37;;;37.37;;
7446;SDS011;3765;47.962;7.952;2022-12-16T12:43:35;60.83;;;36.27;;
7446;SDS011;3765;47.962;7.952;2022-12-16T12:46:30;58.60;;;36.83;;
7446;SDS011;3765;47.962;7.952;2022-12-16T12:49:24;61.67;;;39.83;;
7446;SDS011;3765;47.962;7.952;2022-12-16T12:52:20;63.10;;;38.40;;
7446;SDS011;3765;47.962;7.952;2022-12-16T12:55:16;56.80;;;36.30;;
7446;SDS011;3765;47.962;7.952;2022-12-16T12:58:09;61.43;;;39.23;;
7446;SDS011;3765;47.962;7.952;2022-12-16T13:00:57;62.20;;;38.37;;
7446;SDS011;3765;47.962;7.952;2022-12-16T13:03:48;59.03;;;38.40;;
7446;SDS011;3765;47.962;7.952;2022-12-16T13:06:44;61.60;;;37.57;;
7446;SDS011;3765;47.962;7.952;2022-12-16T13:09:31;60.63;;;38.37;;
7446;SDS011;3765;47.962;7.952;2022-12-16T13:12:25;62.53;;;38.97;;
7446;SDS011;3765;47.962;7.952;2022-12-16T13:15:20;61.67;;;40.17;;
7446;SDS011;3765;47.962;7.952;2022-12-16T13:18:23;63.40;;;38.27;;
7446;SDS011;3765;47.962;7.952;2022-12-16T13:24:40;55.80;;;38.90;;
7446;SDS011;3765;47.962;7.952;2022-12-16T13:27:53;61.23;;;39.10;;
7446;SDS011;3765;47.962;7.952;2022-12-16T13:30:40;60.40;;;38.80;;
7446;SDS011;3765;47.962;7.952;2022-12-16T13:33:50;64.57;;;41.40;;
7446;SDS011;3765;47.962;7.952;2022-12-16T13:36:37;61.50;;;40.63;;
7446;SDS011;3765;47.962;7.952;2022-12-16T13:39:43;57.07;;;37.23;;
7446;SDS011;3765;47.962;7.952;2022-12-16T13:42:49;63.97;;;39.20;;
7446;SDS011;3765;47.962;7.952;2022-12-16T13:45:38;59.43;;;38.70;;
7446;SDS011;3765;47.962;7.952;2022-12-16T13:48:28;60.40;;;39.17;;
7446;SDS011;3765;47.962;7.952;2022-12-16T13:58:08;65.90;;;40.93;;
7446;SDS011;3765;47.962;7.952;2022-12-16T14:01:03;65.50;;;41.37;;
7446;SDS011;3765;47.962;7.952;2022-12-16T14:03:53;74.17;;;40.77;;
7446;SDS011;3765;47.962;7.952;2022-12-16T14:06:40;63.47;;;40.03;;
7446;SDS011;3765;47.962;7.952;2022-12-16T14:09:28;71.80;;;43.07;;
7446;SDS011;3765;47.962;7.952;2022-12-16T14:12:21;66.23;;;41.23;;
7446;SDS011;3765;47.962;7.952;2022-12-16T14:15:25;75.23;;;40.87;;
7446;SDS011;3765;47.962;7.952;2022-12-16T14:18:18;66.87;;;41.83;;
7446;SDS011;3765;47.962;7.952;2022-12-16T14:21:12;71.13;;;44.03;;
7446;SDS011;3765;47.962;7.952;2022-12-16T14:24:02;71.93;;;43.43;;
7446;SDS011;3765;47.962;7.952;2022-12-16T14:26:54;70.50;;;39.63;;
7446;SDS011;3765;47.962;7.952;2022-12-16T14:29:42;68.70;;;43.20;;
7446;SDS011;3765;47.962;7.952;2022-12-16T14:32:30;72.30;;;41.53;;
7446;SDS011;3765;47.962;7.952;2022-12-16T14:35:18;72.93;;;44.23;;
7446;SDS011;3765;47.962;7.952;2022-12-16T14:38:12;65.00;;;42.30;;
7446;SDS011;3765;47.962;7.952;2022-12-16T14:41:08;68.87;;;44.93;;
7446;SDS011;3765;47.962;7.952;2022-12-16T14:43:55;68.47;;;43.30;;
7446;SDS011;3765;47.962;7.952;2022-12-16T14:46:42;68.40;;;42.60;;
7446;SDS011;3765;47.962;7.952;2022-12-16T14:49:34;77.30;;;46.50;;
7446;SDS011;3765;47.962;7.952;2022-12-16T14:52:23;69.30;;;43.60;;
7446;SDS011;3765;47.962;7.952;2022-12-16T14:55:10;71.47;;;44.43;;
7446;SDS011;3765;47.962;7.952;2022-12-16T14:58:01;69.70;;;45.43;;
7446;SDS011;3765;47.962;7.952;2022-12-16T15:00:49;75.60;;;44.90;;
7446;SDS011;3765;47.962;7.952;2022-12-16T15:03:43;73.60;;;44.37;;
7446;SDS011;3765;47.962;7.952;2022-12-16T15:06:31;71.23;;;44.00;;
7446;SDS011;3765;47.962;7.952;2022-12-16T15:09:31;67.67;;;42.40;;
7446;SDS011;3765;47.962;7.952;2022-12-16T15:12:22;67.13;;;43.93;;
7446;SDS011;3765;47.962;7.952;2022-12-16T15:15:13;70.27;;;43.00;;
7446;SDS011;3765;47.962;7.952;2022-12-16T15:18:16;69.17;;;44.57;;
7446;SDS011;3765;47.962;7.952;2022-12-16T15:21:05;82.93;;;44.37;;
7446;SDS011;3765;47.962;7.952;2022-12-16T15:23:51;73.37;;;44.60;;
7446;SDS011;3765;47.962;7.952;2022-12-16T15:26:37;69.53;;;44.10;;
7446;SDS011;3765;47.962;7.952;2022-12-16T15:29:26;72.23;;;43.80;;
7446;SDS011;3765;47.962;7.952;2022-12-16T15:32:24;70.20;;;43.63;;
7446;SDS011;3765;47.962;7.952;2022-12-16T15:35:22;69.83;;;43.30;;
7446;SDS011;3765;47.962;7.952;2022-12-16T15:38:14;78.10;;;43.03;;
7446;SDS011;3765;47.962;7.952;2022-12-16T15:41:13;71.20;;;42.80;;
7446;SDS011;3765;47.962;7.952;2022-12-16T15:44:10;62.17;;;38.83;;
7446;SDS011;3765;47.962;7.952;2022-12-16T15:46:58;63.03;;;40.43;;
7446;SDS011;3765;47.962;7.952;2022-12-16T15:49:44;69.33;;;40.30;;
7446;SDS011;3765;47.962;7.952;2022-12-16T15:52:33;67.93;;;41.60;;
7446;SDS011;3765;47.962;7.952;2022-12-16T15:55:29;65.03;;;39.90;;
7446;SDS011;3765;47.962;7.952;2022-12-16T15:58:18;58.73;;;39.37;;
7446;SDS011;3765;47.962;7.952;2022-12-16T16:01:08;70.00;;;42.37;;
7446;SDS011;3765;47.962;7.952;2022-12-16T16:03:57;81.00;;;41.83;;
7446;SDS011;3765;47.962;7.952;2022-12-16T16:06:54;70.03;;;41.23;;
7446;SDS011;3765;47.962;7.952;2022-12-16T16:09:40;66.47;;;41.13;;
7446;SDS011;3765;47.962;7.952;2022-12-16T16:12:27;65.30;;;39.03;;
7446;SDS011;3765;47.962;7.952;2022-12-16T16:15:13;65.00;;;40.20;;
7446;SDS011;3765;47.962;7.952;2022-12-16T16:18:00;63.13;;;37.40;;
7446;SDS011;3765;47.962;7.952;2022-12-16T16:20:47;67.77;;;39.10;;
7446;SDS011;3765;47.962;7.952;2022-12-16T16:23:33;61.77;;;37.33;;
7446;SDS011;3765;47.962;7.952;2022-12-16T16:26:20;60.87;;;38.03;;
7446;SDS011;3765;47.962;7.952;2022-12-16T16:29:09;61.63;;;38.67;;
7446;SDS011;3765;47.962;7.952;2022-12-16T16:32:07;66.63;;;39.67;;
7446;SDS011;3765;47.962;7.952;2022-12-16T16:34:53;59.60;;;37.60;;
7446;SDS011;3765;47.962;7.952;2022-12-16T16:37:39;62.60;;;35.90;;
7446;SDS011;3765;47.962;7.952;2022-12-16T16:40:27;66.13;;;40.50;;
7446;SDS011;3765;47.962;7.952;2022-12-16T16:43:20;64.77;;;38.40;;
7446;SDS011;3765;47.962;7.952;2022-12-16T16:46:12;63.37;;;39.57;;
7446;SDS011;3765;47.962;7.952;2022-12-16T16:49:12;61.97;;;39.50;;
7446;SDS011;3765;47.962;7.952;2022-12-16T16:52:08;56.60;;;36.13;;
7446;SDS011;3765;47.962;7.952;2022-12-16T16:55:00;60.30;;;37.27;;
7446;SDS011;3765;47.962;7.952;2022-12-16T16:57:46;57.33;;;36.40;;